Time;durP1;ratioP1;P1;durP2;ratioP2;P2;SDS_P1;SDS_P2;PMS_P1;PMS_P2;Temp;Humidity;BMP_temperature;BMP_pressure;BME280_temperature;BME280_humidity;BME280_pressure;Samples;Min_cycle;Max_cycle;Signal;HPM_P1;HPM_P2
2023/01/26 00:00:51;;;;;;;56.03;22.35;;;1.70;90.90;;;;;;5007506;28;20254;-75
2023/01/26 00:03:17;;;;;;;62.70;22.27;;;1.70;91.00;;;;;;5017306;28;20557;-75
2023/01/26 00:05:43;;;;;;;57.72;21.92;;;1.70;91.10;;;;;;5014806;28;20188;-75
2023/01/26 00:08:08;;;;;;;66.47;24.50;;;1.60;91.10;;;;;;5017319;28;20178;-74
2023/01/26 00:10:36;;;;;;;63.50;22.73;;;1.70;91.30;;;;;;5010270;28;20288;-75
2023/01/26 00:13:02;;;;;;;62.40;23.27;;;1.70;91.40;;;;;;5014934;28;20193;-74
2023/01/26 00:15:27;;;;;;;72.43;23.73;;;1.70;91.50;;;;;;5012379;28;20190;-74
2023/01/26 00:17:53;;;;;;;66.23;23.17;;;1.70;91.50;;;;;;5014621;28;20435;-75
2023/01/26 00:20:19;;;;;;;57.23;21.80;;;1.80;91.40;;;;;;5013303;28;20229;-75
2023/01/26 00:22:44;;;;;;;63.47;21.97;;;1.70;91.30;;;;;;5022799;28;20300;-75
2023/01/26 00:25:10;;;;;;;57.70;23.63;;;1.70;91.20;;;;;;5026333;28;20191;-75
2023/01/26 00:27:35;;;;;;;64.00;22.40;;;1.60;91.10;;;;;;5019095;28;20323;-76
2023/01/26 00:30:01;;;;;;;61.80;21.80;;;1.60;91.20;;;;;;5015137;28;20209;-75
2023/01/26 00:32:27;;;;;;;53.10;20.20;;;1.70;91.30;;;;;;5018528;28;20190;-75
2023/01/26 00:34:52;;;;;;;59.30;21.13;;;1.60;91.20;;;;;;5019250;28;20193;-74
2023/01/26 00:37:18;;;;;;;61.40;21.53;;;1.60;91.20;;;;;;5024638;28;20273;-74
2023/01/26 00:39:44;;;;;;;54.77;20.03;;;1.60;91.20;;;;;;5019668;28;20327;-74
2023/01/26 00:42:12;;;;;;;61.17;22.17;;;1.70;91.30;;;;;;5026852;28;20224;-75
2023/01/26 00:44:39;;;;;;;57.10;21.13;;;1.70;91.20;;;;;;5024573;28;20182;-74
2023/01/26 00:47:07;;;;;;;61.42;22.05;;;1.70;91.10;;;;;;5016554;28;20727;-74
2023/01/26 00:49:33;;;;;;;62.45;22.20;;;1.60;91.00;;;;;;5013507;28;20289;-75
2023/01/26 00:51:59;;;;;;;56.60;21.42;;;1.60;91.10;;;;;;5019348;28;20186;-74
2023/01/26 00:54:26;;;;;;;56.70;20.77;;;1.60;91.30;;;;;;5016745;28;20200;-75
2023/01/26 00:56:51;;;;;;;59.60;21.20;;;1.60;91.30;;;;;;5018490;28;20204;-76
2023/01/26 00:59:17;;;;;;;51.07;20.57;;;1.70;91.40;;;;;;5013876;28;20222;-74
2023/01/26 01:01:43;;;;;;;53.53;19.57;;;1.70;91.40;;;;;;5020580;28;20185;-73
2023/01/26 01:04:08;;;;;;;53.83;21.90;;;1.70;91.20;;;;;;5018257;28;20182;-74
2023/01/26 01:06:34;;;;;;;48.23;19.00;;;1.60;91.10;;;;;;5013903;28;20456;-73
2023/01/26 01:09:00;;;;;;;52.20;20.93;;;1.70;91.20;;;;;;5012379;28;20643;-75
2023/01/26 01:11:25;;;;;;;61.90;23.60;;;1.80;91.30;;;;;;5018034;28;20206;-74
2023/01/26 01:13:51;;;;;;;57.23;21.37;;;1.80;91.30;;;;;;5013248;28;20277;-76
2023/01/26 01:16:17;;;;;;;59.97;20.77;;;1.80;91.20;;;;;;5013349;28;20219;-75
2023/01/26 01:18:43;;;;;;;64.53;23.17;;;1.90;91.10;;;;;;5013229;28;20245;-75
2023/01/26 01:21:11;;;;;;;55.05;20.95;;;1.90;91.00;;;;;;5024003;28;20255;-76
2023/01/26 01:23:37;;;;;;;53.80;20.88;;;1.80;90.70;;;;;;5017272;28;20661;-76
2023/01/26 01:26:04;;;;;;;47.13;18.60;;;1.90;90.80;;;;;;5024795;28;20208;-76
2023/01/26 01:28:30;;;;;;;51.45;20.95;;;1.80;90.70;;;;;;5013917;28;20459;-74
2023/01/26 01:30:56;;;;;;;54.65;19.45;;;1.80;90.60;;;;;;5011288;28;20225;-75
2023/01/26 01:33:22;;;;;;;53.60;18.87;;;1.80;90.70;;;;;;5012561;28;20182;-75
2023/01/26 01:36:03;;;;;;;63.80;22.17;;;1.80;90.80;;;;;;5019505;28;20739;-76
2023/01/26 01:38:29;;;;;;;54.80;21.45;;;1.80;90.90;;;;;;5015546;28;20236;-76
2023/01/26 01:40:55;;;;;;;57.70;19.88;;;1.90;90.80;;;;;;5015932;28;20201;-76
2023/01/26 01:43:22;;;;;;;52.33;19.73;;;1.90;90.80;;;;;;5015543;28;20189;-76
2023/01/26 01:45:50;;;;;;;52.67;20.45;;;1.90;90.70;;;;;;5020209;28;20185;-76
2023/01/26 01:48:27;;;;;;;54.65;19.30;;;1.90;90.50;;;;;;5039141;28;20324;-75
2023/01/26 01:50:56;;;;;;;48.83;18.75;;;1.90;90.50;;;;;;5030011;28;20252;-75
2023/01/26 01:53:28;;;;;;;53.92;20.73;;;1.90;90.50;;;;;;5017406;28;20265;-75
2023/01/26 01:55:57;;;;;;;64.03;24.15;;;1.90;90.50;;;;;;5025141;28;20204;-74
2023/01/26 01:58:24;;;;;;;51.10;17.33;;;1.90;90.60;;;;;;5021374;28;20600;-74
2023/01/26 02:00:50;;;;;;;63.08;22.88;;;1.90;90.60;;;;;;5025213;28;20202;-74
2023/01/26 02:03:18;;;;;;;64.00;23.40;;;1.80;90.70;;;;;;5030450;28;20182;-75
2023/01/26 02:05:52;;;;;;;53.63;20.52;;;1.70;90.70;;;;;;5023786;28;20178;-75
2023/01/26 02:08:21;;;;;;;53.67;21.40;;;1.80;90.90;;;;;;5019379;28;20188;-75
2023/01/26 02:10:51;;;;;;;50.72;20.00;;;1.70;91.00;;;;;;5017171;28;20213;-74
2023/01/26 02:13:18;;;;;;;54.00;19.75;;;1.60;91.00;;;;;;5017635;28;20583;-76
2023/01/26 02:15:44;;;;;;;55.80;19.45;;;1.60;91.20;;;;;;5020252;28;20257;-74
2023/01/26 02:18:10;;;;;;;52.53;18.50;;;1.60;91.40;;;;;;5018633;28;20254;-75
2023/01/26 02:20:50;;;;;;;58.97;20.98;;;1.70;91.60;;;;;;5013409;28;20822;-75
2023/01/26 02:23:29;;;;;;;53.03;20.23;;;1.70;91.60;;;;;;5014863;28;20279;-75
2023/01/26 02:26:05;;;;;;;54.03;19.85;;;1.60;91.70;;;;;;5018114;28;20281;-74
2023/01/26 02:28:31;;;;;;;45.80;18.13;;;1.70;91.70;;;;;;5018101;28;20178;-76
2023/01/26 02:30:58;;;;;;;46.00;17.90;;;1.70;91.70;;;;;;5013826;28;20623;-76
2023/01/26 02:33:26;;;;;;;54.05;20.85;;;1.70;91.80;;;;;;5014235;28;20671;-75
2023/01/26 02:35:52;;;;;;;50.65;20.40;;;1.70;91.70;;;;;;5016980;28;20204;-76
2023/01/26 02:38:20;;;;;;;54.30;20.67;;;1.60;91.60;;;;;;5012240;28;20193;-76
2023/01/26 02:40:54;;;;;;;46.60;17.67;;;1.60;91.80;;;;;;5009856;28;20278;-76
2023/01/26 02:43:22;;;;;;;51.15;19.70;;;1.60;91.80;;;;;;5012130;28;20204;-75
2023/01/26 02:45:48;;;;;;;49.97;17.70;;;1.60;91.90;;;;;;5011959;28;20189;-75
2023/01/26 02:49:45;;;;;;;53.73;18.40;;;1.50;91.80;;;;;;5011945;28;20174;-75
2023/01/26 02:50:59;;;;;;;67.03;21.95;;;1.40;91.90;;;;;;5008138;28;20205;-75
2023/01/26 02:53:25;;;;;;;47.73;17.97;;;1.40;92.20;;;;;;5012638;28;20189;-76
2023/01/26 02:55:51;;;;;;;59.10;19.70;;;1.40;92.30;;;;;;5011724;28;20178;-75
2023/01/26 02:58:16;;;;;;;47.50;17.33;;;1.40;92.40;;;;;;5011339;28;20237;-74
2023/01/26 03:00:42;;;;;;;50.30;17.27;;;1.40;92.30;;;;;;5009434;28;20222;-75
2023/01/26 03:03:18;;;;;;;53.33;17.57;;;1.30;92.30;;;;;;5014768;28;20419;-75
2023/01/26 03:05:44;;;;;;;47.75;16.92;;;1.30;92.20;;;;;;5007935;28;20676;-75
2023/01/26 03:08:09;;;;;;;45.20;17.13;;;1.30;92.30;;;;;;5017364;28;20177;-75
2023/01/26 03:10:35;;;;;;;39.23;16.47;;;1.30;92.30;;;;;;5008521;28;20518;-75
2023/01/26 03:13:01;;;;;;;42.97;16.23;;;1.40;92.40;;;;;;5015172;28;20236;-75
2023/01/26 03:15:46;;;;;;;40.20;15.20;;;1.40;92.50;;;;;;5016002;28;20193;-74
2023/01/26 03:29:13;;;;;;;54.40;17.65;;;1.40;92.40;;;;;;5015362;28;20232;-74
2023/01/26 03:31:38;;;;;;;42.50;16.53;;;1.40;92.40;;;;;;5015110;28;20241;-74
2023/01/26 03:34:04;;;;;;;45.23;17.40;;;1.50;92.40;;;;;;5022596;28;20181;-74
2023/01/26 03:36:29;;;;;;;48.83;18.20;;;1.50;92.40;;;;;;5012256;28;20189;-74
2023/01/26 03:38:55;;;;;;;37.30;15.03;;;1.50;92.40;;;;;;5012736;28;20268;-74
2023/01/26 03:57:47;;;;;;;43.17;17.10;;;1.50;92.20;;;;;;5018615;28;20235;-75
2023/01/26 04:00:13;;;;;;;43.88;16.00;;;1.50;92.10;;;;;;5018726;28;20222;-75
2023/01/26 04:08:27;;;;;;;51.35;17.65;;;1.40;92.10;;;;;;5022854;28;20207;-75
2023/01/26 04:10:54;;;;;;;51.88;16.27;;;1.50;92.30;;;;;;5010758;28;20210;-75
2023/01/26 04:21:36;;;;;;;39.55;13.85;;;1.40;91.90;;;;;;5020032;28;20188;-75
2023/01/26 04:24:12;;;;;;;42.80;13.70;;;1.40;91.90;;;;;;5022202;28;20260;-74
2023/01/26 04:26:38;;;;;;;43.95;15.85;;;1.40;91.90;;;;;;5014577;28;20182;-75
2023/01/26 04:29:07;;;;;;;39.50;13.73;;;1.40;91.90;;;;;;5012983;28;20269;-76
2023/01/26 04:31:33;;;;;;;36.78;14.18;;;1.40;91.80;;;;;;5010349;28;20498;-74
2023/01/26 04:34:00;;;;;;;39.57;14.07;;;1.40;91.70;;;;;;5026697;28;20653;-75
2023/01/26 04:36:26;;;;;;;43.10;13.98;;;1.50;91.70;;;;;;5015672;28;20212;-74
2023/01/26 04:38:52;;;;;;;39.88;13.20;;;1.30;91.20;;;;;;5016338;28;20209;-75
2023/01/26 04:41:17;;;;;;;38.23;13.20;;;1.20;91.20;;;;;;5019211;28;20186;-75
2023/01/26 04:43:43;;;;;;;39.13;12.83;;;1.20;91.40;;;;;;5016186;28;20261;-74
2023/01/26 04:46:10;;;;;;;53.78;16.45;;;1.10;91.50;;;;;;5018651;28;20186;-76
2023/01/26 04:48:36;;;;;;;37.67;14.60;;;1.10;91.80;;;;;;5015159;28;20174;-76
2023/01/26 04:51:21;;;;;;;42.58;15.50;;;1.10;92.10;;;;;;5021967;28;20213;-75
2023/01/26 04:53:48;;;;;;;37.28;14.43;;;1.10;92.30;;;;;;5014611;28;20185;-76
2023/01/26 04:56:27;;;;;;;37.05;13.13;;;1.10;92.40;;;;;;5015813;28;20248;-75
2023/01/26 04:58:54;;;;;;;40.92;14.68;;;1.00;92.50;;;;;;5018069;28;20213;-75
2023/01/26 05:01:20;;;;;;;41.17;14.75;;;1.10;92.70;;;;;;5016865;28;20190;-76
2023/01/26 05:03:46;;;;;;;38.35;14.65;;;1.10;92.80;;;;;;5021250;28;20525;-74
2023/01/26 05:06:12;;;;;;;43.37;16.10;;;1.10;92.90;;;;;;5019268;28;20233;-74
2023/01/26 05:08:37;;;;;;;36.17;15.60;;;1.20;92.80;;;;;;5017681;28;20431;-73
2023/01/26 05:11:04;;;;;;;40.13;16.10;;;1.30;93.10;;;;;;5014044;28;20520;-73
2023/01/26 05:13:30;;;;;;;41.45;15.98;;;1.40;93.10;;;;;;5020604;28;20264;-76
2023/01/26 05:15:55;;;;;;;45.50;16.00;;;1.30;92.80;;;;;;5014881;28;20243;-76
2023/01/26 05:18:21;;;;;;;47.20;16.57;;;1.40;92.70;;;;;;5013436;28;20285;-76
2023/01/26 05:20:47;;;;;;;46.47;16.17;;;1.40;92.60;;;;;;5011697;28;20285;-74
2023/01/26 05:23:12;;;;;;;43.05;14.90;;;1.30;92.40;;;;;;5011969;28;20252;-74
2023/01/26 05:25:38;;;;;;;47.10;16.37;;;1.30;92.50;;;;;;5018775;28;20182;-77
2023/01/26 05:28:04;;;;;;;42.97;15.33;;;1.40;92.60;;;;;;5014671;28;20186;-76
2023/01/26 05:30:29;;;;;;;39.50;14.97;;;1.50;92.70;;;;;;5020482;28;20310;-75
2023/01/26 05:33:02;;;;;;;45.03;16.80;;;1.30;92.30;;;;;;5013228;28;20634;-76
2023/01/26 05:35:28;;;;;;;35.90;15.13;;;1.30;92.20;;;;;;5021078;28;20526;-75
2023/01/26 05:37:54;;;;;;;42.03;15.33;;;1.30;92.30;;;;;;5016173;28;20178;-76
2023/01/26 05:40:20;;;;;;;36.47;14.80;;;1.20;92.20;;;;;;5011565;28;20814;-76
2023/01/26 05:42:46;;;;;;;42.47;15.20;;;1.20;92.10;;;;;;5015271;28;20186;-75
2023/01/26 05:45:12;;;;;;;36.03;12.83;;;1.10;92.10;;;;;;5013725;28;20186;-76
2023/01/26 05:47:38;;;;;;;34.50;13.03;;;1.10;92.10;;;;;;5019689;28;20441;-76
2023/01/26 05:50:05;;;;;;;36.73;12.60;;;0.90;91.80;;;;;;5013714;28;20284;-76
2023/01/26 05:52:30;;;;;;;43.65;16.48;;;0.80;91.90;;;;;;5011896;28;20535;-76
2023/01/26 05:54:56;;;;;;;39.37;15.23;;;0.70;92.10;;;;;;5013669;28;20273;-74
2023/01/26 05:57:21;;;;;;;34.90;13.00;;;0.80;92.30;;;;;;5012521;28;20274;-76
2023/01/26 05:59:47;;;;;;;32.33;12.77;;;0.80;92.50;;;;;;5011338;28;20228;-76
2023/01/26 06:02:12;;;;;;;37.40;13.73;;;0.70;92.60;;;;;;5015399;28;20225;-75
2023/01/26 06:04:38;;;;;;;41.40;13.90;;;0.70;92.50;;;;;;5013937;28;20284;-76
2023/01/26 06:07:04;;;;;;;34.30;13.97;;;0.60;92.60;;;;;;5015772;28;20185;-75
2023/01/26 06:09:29;;;;;;;38.87;14.20;;;0.60;92.70;;;;;;5009778;28;20210;-76
2023/01/26 06:11:56;;;;;;;39.13;13.87;;;0.60;92.80;;;;;;5016027;28;20228;-76
2023/01/26 06:14:21;;;;;;;34.50;13.55;;;0.70;92.90;;;;;;5017755;28;20605;-76
2023/01/26 06:16:47;;;;;;;31.57;12.57;;;0.60;92.90;;;;;;5021364;28;20196;-75
2023/01/26 06:19:13;;;;;;;34.90;13.20;;;0.60;92.80;;;;;;5010172;28;20306;-76
2023/01/26 06:21:38;;;;;;;38.10;14.20;;;0.50;92.50;;;;;;5021532;28;20583;-75
2023/01/26 06:24:04;;;;;;;34.87;14.43;;;0.50;92.50;;;;;;5018754;28;20661;-74
2023/01/26 06:26:30;;;;;;;44.37;14.77;;;0.60;92.70;;;;;;5016401;28;20653;-74
2023/01/26 06:28:55;;;;;;;38.57;15.30;;;0.70;92.80;;;;;;5015618;28;20427;-77
2023/01/26 06:31:28;;;;;;;41.07;15.10;;;0.80;92.70;;;;;;5018985;28;20240;-75
2023/01/26 06:33:54;;;;;;;49.30;16.67;;;0.80;92.70;;;;;;5014676;28;20197;-75
2023/01/26 06:36:20;;;;;;;39.75;15.02;;;0.80;92.60;;;;;;5019041;28;20196;-75
2023/01/26 06:38:51;;;;;;;41.13;14.65;;;0.70;92.70;;;;;;5014610;28;20181;-75
2023/01/26 06:41:17;;;;;;;45.70;15.75;;;0.70;92.60;;;;;;5012604;28;20190;-75
2023/01/26 06:43:45;;;;;;;38.40;15.37;;;0.70;92.60;;;;;;5016890;28;20557;-76
2023/01/26 06:46:11;;;;;;;43.30;16.13;;;0.70;92.50;;;;;;5021805;28;20463;-75
2023/01/26 06:48:37;;;;;;;40.85;15.48;;;0.70;92.50;;;;;;5020394;28;20181;-75
2023/01/26 06:51:15;;;;;;;38.60;13.75;;;0.70;92.30;;;;;;5019257;28;20650;-76
2023/01/26 06:53:51;;;;;;;44.70;16.48;;;0.60;92.30;;;;;;5015896;28;20186;-74
2023/01/26 06:56:17;;;;;;;38.55;14.80;;;0.60;92.30;;;;;;5019454;28;20203;-75
2023/01/26 06:58:43;;;;;;;41.13;15.40;;;0.70;92.50;;;;;;5022772;28;20568;-76
2023/01/26 07:01:22;;;;;;;46.73;16.80;;;0.70;92.40;;;;;;5023385;28;20214;-75
2023/01/26 07:03:48;;;;;;;33.80;13.95;;;0.80;92.30;;;;;;5017472;28;20190;-78
2023/01/26 07:06:14;;;;;;;42.75;15.63;;;0.70;92.20;;;;;;5013333;28;20193;-74
2023/01/26 07:08:40;;;;;;;39.23;14.90;;;0.70;92.00;;;;;;5019108;28;20657;-76
2023/01/26 07:11:06;;;;;;;40.23;15.60;;;0.70;92.10;;;;;;5009879;28;20255;-75
2023/01/26 07:13:32;;;;;;;36.35;14.90;;;0.70;92.10;;;;;;5017465;28;20421;-76
2023/01/26 07:16:09;;;;;;;34.88;14.02;;;0.70;92.10;;;;;;5016241;28;20185;-76
2023/01/26 07:18:36;;;;;;;41.60;15.40;;;0.80;92.10;;;;;;5020634;28;20182;-74
2023/01/26 07:21:03;;;;;;;38.58;14.65;;;0.80;92.10;;;;;;5018191;28;20224;-76
2023/01/26 07:23:29;;;;;;;43.08;14.93;;;0.90;92.10;;;;;;5021538;28;20235;-77
2023/01/26 07:25:55;;;;;;;29.05;14.23;;;0.80;92.00;;;;;;5022597;28;20656;-75
2023/01/26 07:28:21;;;;;;;40.60;14.50;;;0.90;91.90;;;;;;5022600;28;20193;-77
2023/01/26 07:30:47;;;;;;;39.27;14.73;;;0.80;91.80;;;;;;5021881;28;20462;-77
2023/01/26 07:33:14;;;;;;;39.30;15.45;;;0.80;91.70;;;;;;5024827;28;20423;-75
2023/01/26 07:35:39;;;;;;;35.45;14.30;;;0.80;91.70;;;;;;5023578;28;20551;-75
2023/01/26 07:38:05;;;;;;;36.13;14.83;;;0.80;91.50;;;;;;5022424;28;20276;-76
2023/01/26 07:40:31;;;;;;;45.60;14.98;;;0.80;91.30;;;;;;5014944;28;20709;-76
2023/01/26 07:42:58;;;;;;;36.40;14.40;;;0.80;91.20;;;;;;5023832;28;20197;-77
2023/01/26 07:45:24;;;;;;;40.75;14.30;;;0.70;91.00;;;;;;5018807;28;20190;-76
2023/01/26 07:47:49;;;;;;;32.83;13.23;;;0.80;91.30;;;;;;5021205;28;20661;-76
2023/01/26 07:50:15;;;;;;;31.87;12.70;;;0.80;91.30;;;;;;5025282;28;20263;-77
2023/01/26 07:52:42;;;;;;;39.63;14.20;;;0.70;91.00;;;;;;5024278;28;20732;-75
2023/01/26 07:55:08;;;;;;;38.35;14.60;;;0.80;91.20;;;;;;5033744;28;20247;-77
2023/01/26 07:57:33;;;;;;;39.53;14.00;;;0.80;91.00;;;;;;5022785;28;20661;-77
2023/01/26 07:59:59;;;;;;;33.97;13.07;;;0.80;90.90;;;;;;5021226;28;20240;-77
2023/01/26 08:02:24;;;;;;;34.57;14.03;;;0.80;91.00;;;;;;5023978;28;20182;-78
2023/01/26 08:04:50;;;;;;;32.73;12.90;;;0.70;90.80;;;;;;5025121;28;20285;-77
2023/01/26 08:07:16;;;;;;;33.93;12.80;;;0.70;90.80;;;;;;5020312;28;20232;-77
2023/01/26 08:09:41;;;;;;;35.77;14.93;;;0.70;90.80;;;;;;5023466;28;20204;-76
2023/01/26 08:12:07;;;;;;;34.13;14.73;;;0.80;90.90;;;;;;5030094;28;20185;-77
2023/01/26 08:14:33;;;;;;;32.67;13.20;;;0.80;90.80;;;;;;5024533;28;20215;-76
2023/01/26 08:16:58;;;;;;;36.00;13.70;;;0.80;90.70;;;;;;5018702;28;20185;-77
2023/01/26 08:19:24;;;;;;;40.77;14.13;;;0.80;90.80;;;;;;5012435;28;20245;-76
2023/01/26 08:21:50;;;;;;;32.70;13.93;;;0.80;90.70;;;;;;5022038;28;20189;-78
2023/01/26 08:24:16;;;;;;;34.75;14.07;;;0.90;90.60;;;;;;5025832;28;20302;-76
2023/01/26 08:26:41;;;;;;;36.23;15.40;;;0.90;90.60;;;;;;5022927;28;20755;-75
2023/01/26 08:29:07;;;;;;;24.40;11.93;;;0.90;90.60;;;;;;5017447;28;20213;-75
2023/01/26 08:31:32;;;;;;;29.37;11.70;;;1.00;90.60;;;;;;5023402;28;20196;-77
2023/01/26 08:33:58;;;;;;;30.67;13.53;;;1.00;90.40;;;;;;5024285;28;20178;-77
2023/01/26 08:36:24;;;;;;;30.87;12.10;;;1.10;90.30;;;;;;5018426;28;20186;-75
2023/01/26 08:38:51;;;;;;;27.43;12.57;;;1.10;90.00;;;;;;5030694;28;20185;-77
2023/01/26 08:41:17;;;;;;;29.67;11.38;;;0.90;89.30;;;;;;5032186;28;20248;-76
2023/01/26 08:43:42;;;;;;;27.45;11.85;;;0.90;89.00;;;;;;5027657;28;20178;-77
2023/01/26 08:46:08;;;;;;;31.60;11.03;;;0.80;89.00;;;;;;5020383;28;20320;-76
2023/01/26 08:48:34;;;;;;;26.70;11.23;;;0.80;88.90;;;;;;5029176;28;20630;-76
2023/01/26 08:51:02;;;;;;;18.42;7.60;;;0.90;88.90;;;;;;5019780;28;20201;-75
2023/01/26 08:53:31;;;;;;;25.88;9.40;;;0.70;87.70;;;;;;5023305;28;20271;-77
2023/01/26 08:55:56;;;;;;;23.02;9.95;;;0.60;87.10;;;;;;5018589;28;20181;-75
2023/01/26 08:58:22;;;;;;;23.43;8.97;;;0.60;87.40;;;;;;5027553;28;20201;-77
2023/01/26 09:00:47;;;;;;;25.80;10.00;;;0.70;87.60;;;;;;5022476;28;20220;-77
2023/01/26 09:03:13;;;;;;;25.97;11.20;;;0.70;87.60;;;;;;5026400;28;20657;-76
2023/01/26 09:05:39;;;;;;;23.63;9.13;;;0.80;87.60;;;;;;5026247;28;20424;-77
2023/01/26 09:08:06;;;;;;;22.47;9.70;;;0.90;87.60;;;;;;5020722;28;20186;-77
2023/01/26 09:10:32;;;;;;;26.00;10.15;;;1.00;87.40;;;;;;5018267;28;20527;-76
2023/01/26 09:12:58;;;;;;;26.60;11.30;;;1.00;87.30;;;;;;5026141;28;20235;-76
2023/01/26 09:15:24;;;;;;;27.17;11.00;;;1.00;87.40;;;;;;5023000;28;20183;-77
2023/01/26 09:17:50;;;;;;;27.10;10.87;;;1.00;87.60;;;;;;5030037;28;20629;-77
2023/01/26 09:20:17;;;;;;;24.33;11.10;;;1.10;87.60;;;;;;5023378;28;20225;-76
2023/01/26 09:22:42;;;;;;;29.33;12.63;;;1.00;87.00;;;;;;5023115;28;20188;-74
2023/01/26 09:25:09;;;;;;;30.30;11.30;;;0.90;86.90;;;;;;5029348;28;20244;-76
2023/01/26 09:27:35;;;;;;;29.88;12.40;;;1.00;87.40;;;;;;5019711;28;20205;-76
2023/01/26 09:30:01;;;;;;;24.80;11.90;;;0.90;87.30;;;;;;5021308;28;20235;-77
2023/01/26 09:32:27;;;;;;;23.85;10.25;;;0.90;87.40;;;;;;5028334;28;20765;-76
2023/01/26 09:34:52;;;;;;;25.23;11.67;;;0.80;86.80;;;;;;5022549;28;20190;-75
2023/01/26 09:37:18;;;;;;;25.40;10.13;;;0.80;86.60;;;;;;5027966;28;20208;-75
2023/01/26 09:39:43;;;;;;;22.30;9.20;;;0.70;86.00;;;;;;5016097;28;20216;-75
2023/01/26 09:42:32;;;;;;;26.73;10.23;;;0.70;85.90;;;;;;5025364;28;20193;-77
2023/01/26 09:45:12;;;;;;;24.63;10.73;;;0.80;86.00;;;;;;5018432;28;20189;-77
2023/01/26 09:47:44;;;;;;;24.55;10.00;;;0.90;86.00;;;;;;5027346;28;20181;-76
2023/01/26 09:50:17;;;;;;;24.42;9.60;;;0.90;85.90;;;;;;5022395;28;20610;-76
2023/01/26 09:53:08;;;;;;;28.65;10.93;;;0.90;86.20;;;;;;5020351;28;20182;-76
2023/01/26 09:55:34;;;;;;;23.17;8.55;;;0.80;86.20;;;;;;5014489;28;20253;-76
2023/01/26 09:58:05;;;;;;;22.63;9.87;;;0.70;86.00;;;;;;5026775;28;20201;-77
2023/01/26 10:00:37;;;;;;;25.17;10.32;;;0.60;86.20;;;;;;5008153;28;20226;-77
2023/01/26 10:03:09;;;;;;;21.95;9.43;;;0.60;86.80;;;;;;5017106;28;20526;-77
2023/01/26 10:05:45;;;;;;;24.42;10.35;;;0.60;87.10;;;;;;5022987;28;20202;-76
2023/01/26 10:08:13;;;;;;;27.45;11.82;;;0.60;87.30;;;;;;5020297;28;20521;-76
2023/01/26 10:10:46;;;;;;;18.95;9.20;;;0.70;87.60;;;;;;5013824;28;20201;-77
2023/01/26 10:13:14;;;;;;;28.58;11.23;;;0.80;87.40;;;;;;5013636;28;20249;-77
2023/01/26 10:15:47;;;;;;;32.88;12.60;;;0.70;87.30;;;;;;5019237;28;20570;-74
2023/01/26 10:18:26;;;;;;;30.95;12.15;;;0.60;87.40;;;;;;5014334;28;20189;-76
2023/01/26 10:20:57;;;;;;;20.45;9.88;;;0.60;88.10;;;;;;5024683;28;20719;-76
2023/01/26 10:23:30;;;;;;;31.25;9.63;;;0.60;87.80;;;;;;5017379;28;20189;-77
2023/01/26 10:26:17;;;;;;;26.75;10.48;;;0.60;87.80;;;;;;5013335;28;20170;-76
2023/01/26 10:28:44;;;;;;;22.58;8.43;;;0.80;87.60;;;;;;5027285;28;20593;-76
2023/01/26 10:31:22;;;;;;;23.63;10.00;;;0.80;86.80;;;;;;5013673;28;20557;-76
2023/01/26 10:34:08;;;;;;;19.35;8.63;;;0.70;86.50;;;;;;5029955;28;20223;-77
2023/01/26 10:36:34;;;;;;;20.77;8.32;;;0.70;86.50;;;;;;5013565;28;20177;-76
2023/01/26 10:39:08;;;;;;;17.60;8.33;;;0.70;85.60;;;;;;5014232;28;20595;-77
2023/01/26 10:41:34;;;;;;;13.15;6.88;;;0.70;85.60;;;;;;5010103;28;20178;-77
2023/01/26 10:44:08;;;;;;;17.77;8.43;;;0.70;84.90;;;;;;5017482;28;20672;-77
2023/01/26 10:46:38;;;;;;;17.80;8.10;;;0.60;84.60;;;;;;5010765;28;20598;-74
2023/01/26 10:49:18;;;;;;;20.98;8.55;;;0.70;84.70;;;;;;5025384;28;20325;-76
2023/01/26 10:52:16;;;;;;;16.42;7.78;;;0.70;84.90;;;;;;5020845;28;20189;-76
2023/01/26 10:54:43;;;;;;;16.85;7.68;;;0.80;84.40;;;;;;5023731;28;20641;-77
2023/01/26 10:57:31;;;;;;;19.52;8.88;;;0.90;84.00;;;;;;5013013;28;20587;-77
2023/01/26 10:59:59;;;;;;;22.52;8.10;;;1.00;83.40;;;;;;5008059;28;20308;-76
2023/01/26 11:02:29;;;;;;;17.00;7.43;;;0.90;83.40;;;;;;5023044;28;20185;-76
2023/01/26 11:05:07;;;;;;;17.13;7.70;;;0.90;83.80;;;;;;5029668;28;20204;-77
2023/01/26 11:07:38;;;;;;;20.00;7.43;;;0.80;83.40;;;;;;5024303;28;20189;-77
2023/01/26 11:10:19;;;;;;;20.27;8.38;;;0.80;84.00;;;;;;5030356;28;20290;-75
2023/01/26 11:12:45;;;;;;;17.58;8.98;;;0.80;83.80;;;;;;5026310;28;20205;-77
2023/01/26 11:15:18;;;;;;;19.70;8.83;;;0.70;84.40;;;;;;5030246;28;20223;-76
2023/01/26 11:17:50;;;;;;;19.30;8.20;;;0.60;84.90;;;;;;5031634;28;20312;-76
2023/01/26 11:20:45;;;;;;;28.13;10.32;;;0.60;85.30;;;;;;5029198;28;20213;-75
2023/01/26 11:23:27;;;;;;;22.17;9.52;;;0.60;85.50;;;;;;5027858;28;20189;-77
2023/01/26 11:26:02;;;;;;;21.85;9.75;;;0.70;86.00;;;;;;5016669;28;20644;-77
2023/01/26 11:28:35;;;;;;;25.10;10.70;;;0.80;86.20;;;;;;5013755;28;20674;-76
2023/01/26 11:31:31;;;;;;;20.83;9.18;;;0.70;85.90;;;;;;5026828;28;20205;-77
2023/01/26 11:34:23;;;;;;;18.30;8.45;;;0.70;86.20;;;;;;5020540;28;20236;-76
2023/01/26 11:37:13;;;;;;;28.25;10.90;;;0.60;86.90;;;;;;5017624;28;20178;-76
2023/01/26 11:39:49;;;;;;;28.02;11.18;;;0.60;87.40;;;;;;5012866;28;20692;-76
2023/01/26 11:42:30;;;;;;;26.95;9.68;;;0.60;87.80;;;;;;5017813;28;20276;-76
2023/01/26 11:45:13;;;;;;;27.70;11.02;;;0.60;88.00;;;;;;5021646;28;20268;-76
2023/01/26 11:48:00;;;;;;;24.17;9.57;;;0.50;88.00;;;;;;5015443;28;20247;-75
2023/01/26 11:50:35;;;;;;;25.83;9.75;;;0.40;88.40;;;;;;5011410;28;20225;-77
2023/01/26 11:53:25;;;;;;;24.75;9.30;;;0.40;88.60;;;;;;5015715;28;20189;-76
2023/01/26 11:56:40;;;;;;;26.15;9.88;;;0.50;88.90;;;;;;5006546;28;20186;-76
2023/01/26 11:59:13;;;;;;;18.27;8.18;;;0.30;88.60;;;;;;5005868;28;20746;-76
2023/01/26 12:02:01;;;;;;;28.00;9.82;;;0.30;88.90;;;;;;5009230;28;20182;-76
2023/01/26 12:04:30;;;;;;;19.63;8.68;;;0.30;88.90;;;;;;5009620;28;20195;-76
2023/01/26 12:07:12;;;;;;;25.50;8.73;;;0.30;88.70;;;;;;5012346;28;20246;-76
2023/01/26 12:09:45;;;;;;;25.08;8.95;;;0.40;88.40;;;;;;5007484;28;20230;-76
2023/01/26 12:12:36;;;;;;;22.20;9.02;;;0.40;88.30;;;;;;4995514;28;20672;-76
2023/01/26 12:15:20;;;;;;;27.80;9.13;;;0.40;87.60;;;;;;5007363;28;20193;-76
2023/01/26 12:17:54;;;;;;;24.48;9.00;;;0.50;87.40;;;;;;5014393;28;20186;-76
2023/01/26 12:20:40;;;;;;;22.27;9.63;;;0.50;86.90;;;;;;5010802;28;20221;-77
2023/01/26 12:23:15;;;;;;;21.23;8.50;;;0.60;86.90;;;;;;5019434;28;20280;-77
2023/01/26 12:26:05;;;;;;;21.38;8.38;;;0.70;86.80;;;;;;5017160;28;20186;-78
2023/01/26 12:28:38;;;;;;;21.80;7.78;;;0.70;86.00;;;;;;5013897;28;20287;-76
2023/01/26 12:31:16;;;;;;;22.73;9.57;;;0.80;85.90;;;;;;5012291;28;20228;-75
2023/01/26 12:33:42;;;;;;;22.80;9.40;;;0.90;85.60;;;;;;5021176;28;20188;-76
2023/01/26 12:36:26;;;;;;;18.87;7.50;;;0.90;85.50;;;;;;5015750;28;20194;-76
2023/01/26 12:39:16;;;;;;;25.67;10.07;;;0.80;85.20;;;;;;5013442;28;20569;-76
2023/01/26 12:41:58;;;;;;;25.60;9.82;;;0.70;85.00;;;;;;5021664;28;20235;-76
2023/01/26 12:44:40;;;;;;;24.02;9.07;;;0.60;85.70;;;;;;5014031;28;20206;-77
2023/01/26 12:47:10;;;;;;;23.85;10.45;;;0.60;86.20;;;;;;5027056;28;20200;-76
2023/01/26 12:49:48;;;;;;;22.88;9.68;;;0.60;86.30;;;;;;5011679;28;20324;-76
2023/01/26 12:52:21;;;;;;;25.48;9.95;;;0.60;86.30;;;;;;5013999;28;20213;-77
2023/01/26 12:55:11;;;;;;;20.65;9.55;;;0.50;86.30;;;;;;5024918;28;20178;-76
2023/01/26 12:58:01;;;;;;;26.52;11.10;;;0.40;86.60;;;;;;5010109;28;20197;-77
2023/01/26 13:00:33;;;;;;;25.25;10.85;;;0.40;86.90;;;;;;5011101;28;20213;-76
2023/01/26 13:03:21;;;;;;;25.55;11.35;;;0.50;87.10;;;;;;5018537;28;20193;-76
2023/01/26 13:05:59;;;;;;;30.27;11.80;;;0.50;87.10;;;;;;5013906;28;20189;-76
2023/01/26 13:08:39;;;;;;;28.42;11.50;;;0.50;87.10;;;;;;5021169;28;20188;-76
2023/01/26 13:11:07;;;;;;;30.63;12.55;;;0.60;87.60;;;;;;5013373;28;20189;-76
2023/01/26 13:13:53;;;;;;;28.48;13.25;;;0.60;87.60;;;;;;5010831;28;20189;-76
2023/01/26 13:16:19;;;;;;;36.28;14.13;;;0.50;87.70;;;;;;5017154;28;20178;-76
2023/01/26 13:18:50;;;;;;;37.13;14.60;;;0.50;87.80;;;;;;5014703;28;20680;-76
2023/01/26 13:21:43;;;;;;;32.75;13.27;;;0.60;88.00;;;;;;5015574;28;20220;-76
2023/01/26 13:24:17;;;;;;;32.50;13.43;;;0.60;88.00;;;;;;5011908;28;20265;-76
2023/01/26 13:26:54;;;;;;;28.63;12.23;;;0.60;88.00;;;;;;5018415;28;20206;-75
2023/01/26 13:29:31;;;;;;;37.50;14.40;;;0.50;87.80;;;;;;5010321;28;20237;-76
2023/01/26 13:32:16;;;;;;;31.08;12.68;;;0.50;87.70;;;;;;5012650;28;20280;-76
2023/01/26 13:34:58;;;;;;;33.97;12.52;;;0.50;88.10;;;;;;5008107;28;20196;-76